ADDS METAR Data INFO
IDs: Format: Raw Decoded Include TAF

Data at: 0407 UTC 11 Dec 2017

KMIS 110355Z AUTO 26011KT 10SM CLR 13/06 A3037 RMK A01
KMIS 110335Z AUTO 24010KT 10SM CLR 13/06 A3037 RMK A01
KMIS 110315Z AUTO 24009KT 10SM CLR 13/05 A3037 RMK A01
KMIS 110255Z AUTO 25009KT 10SM CLR 13/05 A3037 RMK A01
KMIS 110235Z AUTO 23007KT 10SM CLR 13/05 A3037 RMK A01
KMIS 110215Z AUTO 24009KT 10SM CLR 13/04 A3037 RMK A01
KMIS 110155Z AUTO 24009KT 10SM CLR 13/03 A3037 RMK A01
KMIS 110135Z AUTO 24008KT 10SM CLR 13/03 A3036 RMK A01
KMIS 110115Z AUTO 26009KT 10SM CLR 13/02 A3036 RMK A01
KMIS 110055Z AUTO 25009KT 10SM CLR 13/02 A3036 RMK A01
KMIS 110035Z AUTO 26009KT 10SM CLR 13/02 A3036 RMK A01
KMIS 110015Z AUTO 24009KT 10SM CLR 13/02 A3036 RMK A01
KMIS 102355Z AUTO 25009KT 10SM CLR 13/03 A3036 RMK A01
KMIS 102335Z AUTO 25009KT 10SM CLR 13/03 A3035 RMK A01
KMIS 102315Z AUTO 25007KT 10SM CLR 13/03 A3035 RMK A01
KMIS 102255Z AUTO 24007KT 10SM CLR 13/02 A3035 RMK A01
KMIS 102235Z AUTO 26007KT 10SM CLR 13/02 A3035 RMK A01
KMIS 102215Z AUTO 25006KT 10SM CLR 13/02 A3036 RMK A01
KMIS 102155Z AUTO 24006KT 10SM CLR 13/02 A3035 RMK A01
KMIS 102135Z AUTO 26006KT 10SM CLR 13/01 A3035 RMK A01
KMIS 102115Z AUTO 25006KT 10SM CLR 13/01 A3035 RMK A01
KMIS 102055Z AUTO 24005KT CLR 13/M01 A3036 RMK A01
KMIS 102035Z AUTO 25006KT 10SM CLR 13/00 A3036 RMK A01
KMIS 102015Z AUTO 29007KT 10SM CLR 13/02 A3036 RMK A01
KMIS 101955Z AUTO 29007KT 10SM CLR 13/04 A3036 RMK A01
KMIS 101935Z AUTO 28006KT 10SM CLR 13/05 A3035 RMK A01
KMIS 101915Z AUTO 30005KT 10SM CLR 13/05 A3035 RMK A01
KMIS 101855Z AUTO 00000KT 10SM CLR 14/03 A3036 RMK A01
KMIS 101835Z AUTO VRB03KT 10SM CLR 14/03 A3037 RMK A01
KMIS 101815Z AUTO 33005KT 10SM CLR 14/05 A3038 RMK A01
KMIS 101755Z AUTO 35004KT 10SM CLR 13/02 A3039 RMK A01
KMIS 101735Z AUTO 35006KT 10SM CLR 13/03 A3039 RMK A01
KMIS 101715Z AUTO 01005KT 10SM CLR 13/03 A3040 RMK A01
KMIS 101655Z AUTO 34004KT 10SM CLR 13/04 A3040 RMK A01
KMIS 101635Z AUTO 00000KT 10SM CLR 13/02 A3041 RMK A01
KMIS 101615Z AUTO 00000KT 10SM CLR 13/04 A3041 RMK A01
KMIS 101555Z AUTO 05004KT 10SM CLR 13/03 A3042 RMK A01
KMIS 101535Z AUTO VRB05KT 10SM CLR 13/03 A3042 RMK A01
KMIS 101515Z AUTO 03005KT 10SM CLR 13/03 A3042 RMK A01
KMIS 101455Z AUTO 00000KT 10SM CLR 12/03 A3041 RMK A01
KMIS 101435Z AUTO 03007KT 360V060 10SM CLR 12/03 A3040 RMK A01
KMIS 101415Z AUTO 04008KT 10SM CLR 12/03 A3039 RMK A01
KMIS 101355Z AUTO 03008KT 10SM CLR 12/03 A3038 RMK A01
KMIS 101335Z AUTO 02003G10KT 10SM CLR 12/02 A3038 RMK A01
KMIS 101315Z AUTO 02007KT 10SM CLR 12/03 A3037 RMK A01
KMIS 101255Z AUTO VRB06G12KT 10SM CLR 12/03 A3036 RMK A01
KMIS 101235Z AUTO 02009KT 10SM CLR 12/02 A3037 RMK A01
KMIS 101215Z AUTO 01008KT 10SM CLR 12/02 A3036 RMK A01
KMIS 101155Z AUTO 36011KT 10SM CLR 12/03 A3036 RMK A01
KMIS 101135Z AUTO 34007G15KT 10SM CLR 12/02 A3036 RMK A01
KMIS 101115Z AUTO 35010G16KT 10SM CLR 12/03 A3035 RMK A01
KMIS 101055Z AUTO 34011G16KT 10SM CLR 12/03 A3033 RMK A01
KMIS 101035Z AUTO 01011KT 10SM CLR 12/02 A3033 RMK A01
KMIS 101015Z AUTO 35012KT 10SM CLR 12/02 A3033 RMK A01
KMIS 100955Z AUTO 33010KT 10SM CLR 12/02 A3033 RMK A01
KMIS 100935Z AUTO 33010G17KT 10SM CLR 12/02 A3034 RMK A01
KMIS 100915Z AUTO 34012KT 10SM CLR 12/03 A3033 RMK A01
KMIS 100855Z AUTO 33012KT 10SM CLR 12/03 A3033 RMK A01
KMIS 100835Z AUTO 32011KT 10SM CLR 14/04 A3034 RMK A01
KMIS 100815Z AUTO 31012KT 10SM CLR 13/04 A3033 RMK A01
KMIS 100755Z AUTO 31011KT 10SM CLR 13/03 A3034 RMK A01
KMIS 100735Z AUTO 33011G17KT 10SM CLR 13/03 A3034 RMK A01
KMIS 100715Z AUTO 32012KT 10SM CLR 13/04 A3033 RMK A01
KMIS 100655Z AUTO 31012KT 10SM CLR 12/03 A3033 RMK A01
KMIS 100635Z AUTO 31012KT 10SM CLR 12/02 A3034 RMK A01
KMIS 100615Z AUTO 29013KT 10SM CLR 11/02 A3033 RMK A01
KMIS 100555Z AUTO 31012KT 10SM CLR 12/03 A3034 RMK A01
KMIS 100535Z AUTO 30012KT 10SM CLR 11/04 A3033 RMK A01
KMIS 100515Z AUTO 30012G19KT 10SM CLR 12/03 A3033 RMK A01
KMIS 100455Z AUTO 33012G18KT 10SM CLR 13/03 A3033 RMK A01
KMIS 100435Z AUTO 33013G19KT 10SM CLR 13/01 A3033 RMK A01
KMIS 100415Z AUTO 32016KT 10SM CLR 15/03 A3032 RMK A01
KMIS 100355Z AUTO 33016KT 10SM CLR 13/02 A3031 RMK A01
KMIS 100335Z AUTO 33016KT 10SM CLR 12/01 A3030 RMK A01
KMIS 100315Z AUTO 33015G20KT 10SM CLR 12/02 A3029 RMK A01
KMIS 100255Z AUTO 33015KT 10SM CLR 12/01 A3029 RMK A01
KMIS 100235Z AUTO 32012KT 10SM CLR 11/02 A3028 RMK A01
KMIS 100215Z AUTO 32014KT 10SM CLR 11/02 A3027 RMK A01
KMIS 100155Z AUTO 31012G17KT 10SM CLR 11/02 A3027 RMK A01
KMIS 100135Z AUTO 30012KT 10SM CLR 10/02 A3026 RMK A01
KMIS 100115Z AUTO 30011KT 10SM CLR 11/01 A3026 RMK A01
KMIS 100055Z AUTO 28014KT 10SM CLR 11/01 A3024 RMK A01
KMIS 100035Z AUTO 31014KT 10SM CLR 12/01 A3023 RMK A01
KMIS 100015Z AUTO 30014KT 10SM CLR 11/M00 A3023 RMK A01
KMIS 092355Z AUTO 30013G19KT 10SM CLR 10/M01 A3022 RMK A01
KMIS 092335Z AUTO 32014KT 10SM CLR 12/01 A3021 RMK A01
KMIS 092315Z AUTO 32013KT 10SM CLR 12/00 A3020 RMK A01
KMIS 092255Z AUTO 32014G21KT 10SM CLR 12/00 A3020 RMK A01
KMIS 092235Z AUTO 31015G21KT 10SM CLR 11/00 A3020 RMK A01
KMIS 092215Z AUTO 31014G22KT 10SM CLR 10/01 A3020 RMK A01
KMIS 092155Z AUTO 31015KT 10SM CLR 11/01 A3019 RMK A01
KMIS 092135Z AUTO 31015G20KT 10SM CLR 09/00 A3019 RMK A01
KMIS 092115Z AUTO 31016KT 10SM CLR 10/00 A3018 RMK A01
KMIS 092055Z AUTO 32017KT 10SM CLR 10/01 A3019 RMK A01
KMIS 092035Z AUTO 32017KT 10SM CLR 10/01 A3019 RMK A01
KMIS 092015Z AUTO 31018G23KT 10SM CLR 09/00 A3019 RMK A01
KMIS 091955Z AUTO 32016G24KT 10SM CLR 09/01 A3019 RMK A01
KMIS 091935Z AUTO 32016G22KT 10SM CLR 09/00 A3019 RMK A01
KMIS 091915Z AUTO 32016KT 10SM CLR 08/00 A3019 RMK A01
KMIS 091855Z AUTO 31017KT 10SM CLR 08/M00 A3019 RMK A01
KMIS 091835Z AUTO 32020KT 10SM CLR 09/01 A3019 RMK A01
KMIS 091815Z AUTO 32017KT 10SM CLR 09/00 A3020 RMK A01
KMIS 091755Z AUTO 32016KT 10SM CLR 08/01 A3022 RMK A01
KMIS 091735Z AUTO 32017KT 10SM CLR 09/01 A3022 RMK A01
KMIS 091715Z AUTO 32015G21KT 10SM FEW027 09/01 A3022 RMK A01
KMIS 091655Z AUTO 32018KT 10SM CLR 09/01 A3023 RMK A01
KMIS 091635Z AUTO 33017KT 10SM CLR 09/M00 A3023 RMK A01
KMIS 091615Z AUTO 33018KT 7SM CLR 08/M00 A3023 RMK A01